Time;durP1;ratioP1;P1;durP2;ratioP2;P2;SDS_P1;SDS_P2;PMS_P1;PMS_P2;Temp;Humidity;BMP_temperature;BMP_pressure;BME280_temperature;BME280_humidity;BME280_pressure;Samples;Min_cycle;Max_cycle;Signal;HPM_P1;HPM_P2
2022/07/15 00:00:00;;;;;;;3.60;3.40;;;;;;;17.25;69.38;97015.69;5007963;28;20511;-63
2022/07/15 00:02:27;;;;;;;3.30;3.00;;;;;;;17.28;69.43;97014.06;5011524;28;20065;-63
2022/07/15 00:04:54;;;;;;;2.97;2.78;;;;;;;16.70;69.92;96921.88;5008231;28;20140;-63
2022/07/15 00:07:21;;;;;;;4.22;2.78;;;;;;;17.33;69.42;97016.44;5011223;28;20456;-64
2022/07/15 00:12:33;;;;;;;2.88;2.67;;;;;;;17.28;69.80;97028.06;5011265;28;20045;-69
2022/07/15 00:15:00;;;;;;;3.05;2.85;;;;;;;17.35;70.37;97014.00;5006677;28;20444;-63
2022/07/15 00:17:27;;;;;;;3.08;2.88;;;;;;;16.91;69.60;96944.88;5013289;28;20049;-67
2022/07/15 00:19:53;;;;;;;3.63;3.17;;;;;;;17.35;70.01;97011.22;5022307;28;20046;-68
2022/07/15 00:22:21;;;;;;;6.50;3.10;;;;;;;17.27;69.85;97007.69;5010927;28;20054;-64
2022/07/15 00:24:47;;;;;;;3.35;3.05;;;;;;;17.30;69.73;97006.06;5008247;28;20045;-69
2022/07/15 00:27:14;;;;;;;3.17;2.97;;;;;;;17.27;69.98;97001.28;5010610;28;20065;-62
2022/07/15 00:29:41;;;;;;;3.80;3.50;;;;;;;16.63;69.67;96917.94;5008183;28;20050;-63
2022/07/15 00:32:08;;;;;;;3.35;3.15;;;;;;;17.20;70.53;97012.56;5010842;28;20053;-69
2022/07/15 00:34:35;;;;;;;3.50;3.05;;;;;;;16.98;71.41;97011.94;5005759;28;20164;-62
2022/07/15 00:37:02;;;;;;;3.50;3.20;;;;;;;16.60;71.99;96952.31;5008458;28;20405;-68
2022/07/15 00:39:28;;;;;;;3.45;2.75;;;;;;;16.81;70.91;96970.13;5006927;28;20505;-62
2022/07/15 00:41:55;;;;;;;2.78;2.58;;;;;;;17.09;70.64;97015.44;5005935;28;20053;-63
2022/07/15 00:44:22;;;;;;;3.03;2.83;;;;;;;16.76;71.01;96954.56;5012575;28;20045;-62
2022/07/15 00:46:49;;;;;;;3.03;2.70;;;;;;;17.11;70.54;97009.44;5011847;28;20050;-63
2022/07/15 00:49:15;;;;;;;4.72;2.88;;;;;;;17.00;71.20;97008.72;5006452;28;20049;-64
2022/07/15 00:51:45;;;;;;;2.92;2.72;;;;;;;16.78;71.74;96996.94;5011401;28;20551;-63
2022/07/15 00:54:14;;;;;;;3.50;3.03;;;;;;;16.74;72.27;97000.97;5006507;28;20054;-68
2022/07/15 00:56:48;;;;;;;3.20;2.90;;;;;;;16.83;72.27;97004.09;5011356;28;20054;-68
2022/07/15 00:59:17;;;;;;;2.85;2.65;;;;;;;16.46;72.45;96951.63;5006177;28;20080;-64
2022/07/15 01:01:45;;;;;;;2.97;2.78;;;;;;;16.80;71.69;97004.91;5013395;28;20058;-63
2022/07/15 01:04:13;;;;;;;2.83;2.53;;;;;;;16.69;72.30;96999.41;5023998;28;20058;-68
2022/07/15 01:06:40;;;;;;;2.63;2.42;;;;;;;16.70;72.66;97000.19;5014318;28;20111;-68
2022/07/15 01:09:06;;;;;;;2.95;2.75;;;;;;;15.97;72.28;96884.84;5024675;28;20049;-63
2022/07/15 01:11:33;;;;;;;3.00;2.80;;;;;;;16.56;72.68;96990.72;5014535;28;20508;-62
2022/07/15 01:14:01;;;;;;;3.00;2.80;;;;;;;16.48;73.14;96989.19;5024552;28;20072;-62
2022/07/15 01:16:28;;;;;;;3.33;3.00;;;;;;;16.46;73.37;96997.16;5011744;28;20046;-68
2022/07/15 01:18:55;;;;;;;3.22;2.85;;;;;;;16.34;75.33;96983.63;5005777;28;20054;-62
2022/07/15 01:21:23;;;;;;;3.80;3.40;;;;;;;16.10;77.14;96984.59;5010599;28;20053;-64
2022/07/15 01:23:49;;;;;;;5.60;3.58;;;;;;;15.96;78.13;96986.66;5004822;28;20072;-67
2022/07/15 01:26:16;;;;;;;4.20;3.33;;;;;;;15.54;78.92;96948.53;5010869;28;20045;-68
2022/07/15 01:28:44;;;;;;;4.10;3.80;;;;;;;15.20;80.30;96913.94;5005877;28;20517;-62
2022/07/15 01:31:10;;;;;;;4.10;3.65;;;;;;;15.72;80.05;96979.97;5013093;28;20523;-69
2022/07/15 01:33:38;;;;;;;3.45;3.15;;;;;;;14.89;79.49;96836.72;5008310;28;20064;-67
2022/07/15 01:36:05;;;;;;;4.00;3.53;;;;;;;15.85;79.28;96992.31;5011247;28;20131;-65
2022/07/15 01:38:32;;;;;;;32.20;10.73;;;;;;;15.54;80.52;97001.56;5005739;28;20068;-63
2022/07/15 01:41:14;;;;;;;21.42;7.35;;;;;;;15.01;84.88;96984.13;5012612;28;20050;-62
2022/07/15 01:43:40;;;;;;;10.45;5.55;;;;;;;14.96;85.87;96974.16;5009591;28;20054;-68
2022/07/15 01:46:07;;;;;;;19.95;6.95;;;;;;;15.28;84.01;96974.13;5017228;28;20063;-62
2022/07/15 01:51:19;;;;;;;13.02;4.97;;;;;;;15.66;80.07;96975.22;5011562;28;20444;-68
2022/07/15 01:53:46;;;;;;;9.45;4.68;;;;;;;15.27;79.25;96913.91;5005567;28;20084;-62
2022/07/15 01:56:12;;;;;;;5.13;3.50;;;;;;;15.71;78.44;96981.16;5010181;28;20049;-63
2022/07/15 01:58:39;;;;;;;2.90;2.70;;;;;;;15.74;78.07;96983.16;5003897;28;20062;-68
2022/07/15 02:01:07;;;;;;;3.97;2.88;;;;;;;15.84;77.77;96979.50;5010971;28;20073;-68
2022/07/15 02:03:34;;;;;;;3.25;2.45;;;;;;;15.35;76.91;96893.13;5005139;28;20152;-63
2022/07/15 02:06:01;;;;;;;3.05;2.85;;;;;;;15.99;76.45;96977.44;5011016;28;20505;-63
2022/07/15 02:08:28;;;;;;;3.50;2.40;;;;;;;16.01;76.50;96975.84;5004910;28;20438;-68
2022/07/15 02:10:54;;;;;;;3.00;2.80;;;;;;;16.03;76.04;96979.03;5009638;28;20062;-62
2022/07/15 02:13:21;;;;;;;3.15;2.40;;;;;;;15.73;75.94;96942.47;5009660;28;20620;-68
2022/07/15 02:15:48;;;;;;;4.15;2.65;;;;;;;15.93;76.46;96977.06;5008827;28;20116;-68
2022/07/15 02:18:14;;;;;;;4.53;2.78;;;;;;;15.95;75.99;96977.47;5010848;28;20065;-68
2022/07/15 02:20:41;;;;;;;2.65;2.45;;;;;;;15.62;76.32;96940.91;5009360;28;20049;-68
2022/07/15 02:23:09;;;;;;;3.08;2.78;;;;;;;15.92;76.44;96972.69;5004951;28;20057;-68
2022/07/15 02:25:36;;;;;;;2.55;2.35;;;;;;;15.80;75.71;96959.19;5009377;28;20085;-62
2022/07/15 02:28:05;;;;;;;2.75;2.55;;;;;;;15.84;76.18;96975.94;5004974;28;20053;-62
2022/07/15 02:30:38;;;;;;;3.00;2.75;;;;;;;15.43;76.22;96936.59;5010070;28;20046;-68
2022/07/15 02:33:05;;;;;;;5.50;2.80;;;;;;;15.39;76.06;96923.88;5004670;28;20058;-62
2022/07/15 02:35:33;;;;;;;6.80;2.88;;;;;;;15.66;76.17;96980.81;5009261;28;20076;-68
2022/07/15 02:38:00;;;;;;;6.93;3.55;;;;;;;15.32;77.30;96968.53;5004546;28;20111;-62
2022/07/15 02:40:27;;;;;;;5.45;3.55;;;;;;;15.38;77.78;96984.47;5007929;28;20053;-68
2022/07/15 02:42:56;;;;;;;3.10;2.90;;;;;;;15.38;77.73;96987.25;5005326;28;20054;-67
2022/07/15 02:45:25;;;;;;;4.40;2.95;;;;;;;15.31;78.09;96992.03;5015350;28;20503;-68
2022/07/15 02:47:52;;;;;;;4.80;3.13;;;;;;;15.25;79.21;96988.88;5006481;28;20058;-62
2022/07/15 02:50:20;;;;;;;3.38;3.13;;;;;;;15.23;79.86;96980.09;5006195;28;20050;-68
2022/07/15 02:52:47;;;;;;;4.25;3.50;;;;;;;14.58;81.05;96910.06;5007306;28;20056;-68
2022/07/15 02:55:15;;;;;;;3.00;2.72;;;;;;;15.10;80.73;97001.25;5005159;28;20046;-62
2022/07/15 02:57:42;;;;;;;2.95;2.75;;;;;;;15.16;79.64;96985.69;5012418;28;20093;-68
2022/07/15 03:00:11;;;;;;;3.45;3.22;;;;;;;15.18;79.17;96983.28;5007410;28;20609;-62
2022/07/15 03:02:39;;;;;;;3.85;3.47;;;;;;;15.12;79.77;96980.13;5012552;28;20057;-63
2022/07/15 03:05:07;;;;;;;4.38;3.55;;;;;;;15.08;80.28;96989.69;5009770;28;20064;-62
2022/07/15 03:07:33;;;;;;;4.05;3.65;;;;;;;15.10;81.14;96987.28;5010165;28;20069;-62
2022/07/15 03:10:00;;;;;;;5.05;3.58;;;;;;;15.09;81.22;96980.13;5008733;28;20072;-62
2022/07/15 03:12:27;;;;;;;3.55;3.22;;;;;;;15.15;80.31;96978.53;5013892;28;20049;-63
2022/07/15 03:14:53;;;;;;;2.90;2.70;;;;;;;15.04;80.79;96955.44;5023215;28;20061;-65
2022/07/15 03:17:20;;;;;;;5.25;3.40;;;;;;;15.28;80.29;96979.69;5011939;28;20504;-67
2022/07/15 03:19:47;;;;;;;2.97;2.78;;;;;;;14.68;79.52;96892.53;5008076;28;20053;-61
2022/07/15 03:22:13;;;;;;;3.08;2.88;;;;;;;15.16;80.14;96974.53;5011782;28;20073;-62
2022/07/15 03:24:40;;;;;;;3.40;3.10;;;;;;;15.24;79.37;96976.09;5009140;28;20054;-67
2022/07/15 03:27:08;;;;;;;2.65;2.45;;;;;;;15.22;79.30;96966.56;5011159;28;20042;-61
2022/07/15 03:29:35;;;;;;;3.03;2.83;;;;;;;15.32;79.02;96976.91;5008388;28;20057;-67
2022/07/15 03:32:02;;;;;;;4.10;3.10;;;;;;;15.35;78.25;96968.50;5010088;28;20151;-62
2022/07/15 03:34:29;;;;;;;3.00;2.80;;;;;;;15.43;78.14;96961.72;5007866;28;20062;-60
2022/07/15 03:36:56;;;;;;;3.20;3.00;;;;;;;15.52;77.86;96964.09;5006914;28;20069;-61
2022/07/15 03:39:22;;;;;;;2.97;2.78;;;;;;;15.59;77.75;96964.88;5007836;28;20061;-67
2022/07/15 03:41:49;;;;;;;3.15;2.80;;;;;;;15.55;78.32;96972.47;5015243;28;20061;-61
2022/07/15 03:44:17;;;;;;;3.30;3.00;;;;;;;15.70;77.68;96965.63;5026550;28;20064;-62
2022/07/15 03:46:47;;;;;;;2.80;2.53;;;;;;;15.80;77.14;96967.56;5013804;28;20050;-62
2022/07/15 03:49:15;;;;;;;4.65;2.70;;;;;;;15.53;76.29;96921.00;5007681;28;20101;-61
2022/07/15 03:51:43;;;;;;;4.45;3.00;;;;;;;16.07;75.87;96965.84;5015363;28;20077;-67
2022/07/15 03:54:09;;;;;;;2.97;2.60;;;;;;;16.26;75.28;96973.72;5024715;28;20054;-62
2022/07/15 03:56:36;;;;;;;2.97;2.78;;;;;;;16.04;74.92;96919.16;5013601;28;20072;-65
2022/07/15 03:59:03;;;;;;;4.78;3.20;;;;;;;16.54;74.21;96959.56;5007481;28;20553;-61
2022/07/15 04:01:30;;;;;;;5.13;3.42;;;;;;;16.47;72.48;96925.28;5013158;28;20523;-61
2022/07/15 04:03:57;;;;;;;3.58;3.10;;;;;;;16.94;72.61;96976.81;5005772;28;20060;-67
2022/07/15 04:06:24;;;;;;;3.78;3.20;;;;;;;17.07;72.17;96986.28;5012489;28;20440;-62
2022/07/15 04:08:52;;;;;;;5.13;3.40;;;;;;;17.22;71.22;96971.75;5005803;28;20656;-69
2022/07/15 04:11:18;;;;;;;3.28;3.08;;;;;;;17.39;71.17;96969.94;5011193;28;20068;-70
2022/07/15 04:13:46;;;;;;;6.45;2.60;;;;;;;17.52;69.80;96962.66;5007130;28;20057;-69
2022/07/15 04:16:14;;;;;;;4.65;3.53;;;;;;;17.52;69.78;96965.44;5012628;28;20069;-63
2022/07/15 04:18:41;;;;;;;3.35;3.05;;;;;;;17.46;69.69;96947.50;5007406;28;20066;-65
2022/07/15 04:21:08;;;;;;;3.40;3.20;;;;;;;17.78;69.25;96961.94;5012197;28;20598;-69
2022/07/15 04:23:35;;;;;;;6.88;3.50;;;;;;;17.81;68.45;96952.69;5007215;28;20129;-69
2022/07/15 04:26:03;;;;;;;4.32;3.40;;;;;;;17.92;68.18;96965.34;5012902;28;20056;-63
2022/07/15 04:28:29;;;;;;;5.38;2.97;;;;;;;18.00;68.11;96960.44;5010478;28;20552;-69
2022/07/15 04:30:56;;;;;;;3.95;3.53;;;;;;;18.24;67.28;96966.94;5012464;28;20503;-69
2022/07/15 04:33:23;;;;;;;5.93;3.35;;;;;;;17.56;67.07;96862.56;5011828;28;20054;-61
2022/07/15 04:35:50;;;;;;;5.20;3.58;;;;;;;18.47;66.35;96956.59;5012576;28;20053;-68
2022/07/15 04:38:17;;;;;;;4.60;3.17;;;;;;;18.66;65.26;96961.50;5005221;28;20050;-67
2022/07/15 04:40:44;;;;;;;4.97;3.28;;;;;;;18.56;64.62;96919.59;5009766;28;20050;-63
2022/07/15 04:43:11;;;;;;;3.63;3.13;;;;;;;18.63;63.79;96886.59;5006374;28;20137;-68
2022/07/15 04:45:38;;;;;;;10.80;3.30;;;;;;;19.16;62.56;96956.63;5016853;28;20049;-62
2022/07/15 04:50:45;;;;;;;3.65;3.35;;;;;;;19.31;62.09;96946.75;5006705;28;20065;-63
2022/07/15 04:50:52;;;;;;;3.47;3.20;;;;;;;19.48;61.92;96948.44;5012141;28;20088;-69
2022/07/15 04:53:20;;;;;;;4.72;3.60;;;;;;;19.72;61.66;96945.56;5006468;28;20064;-62
2022/07/15 04:55:47;;;;;;;3.45;3.25;;;;;;;19.94;60.77;96941.06;5012005;28;20053;-69
2022/07/15 04:58:14;;;;;;;3.15;2.97;;;;;;;19.80;61.27;96918.88;5005053;28;20050;-62
2022/07/15 05:00:42;;;;;;;3.70;3.47;;;;;;;20.12;60.70;96975.25;5011774;28;20049;-70
2022/07/15 05:03:10;;;;;;;4.65;3.60;;;;;;;20.29;60.04;96934.69;5005981;28;20570;-69
2022/07/15 05:05:37;;;;;;;3.83;3.53;;;;;;;20.57;59.03;96948.09;5011247;28;20053;-68
2022/07/15 05:08:04;;;;;;;3.60;3.40;;;;;;;20.73;58.30;96942.50;5013576;28;20131;-69
2022/07/15 05:10:34;;;;;;;6.57;4.55;;;;;;;20.88;57.27;96935.31;5020507;28;20053;-62
2022/07/15 05:13:03;;;;;;;5.05;3.97;;;;;;;20.86;57.32;96935.75;5005809;28;20050;-70
2022/07/15 05:15:30;;;;;;;3.67;3.40;;;;;;;21.15;57.16;96952.72;5010816;28;20111;-63
2022/07/15 05:17:57;;;;;;;5.38;3.22;;;;;;;21.39;56.50;96940.00;5006599;28;20050;-62
2022/07/15 05:20:24;;;;;;;5.78;3.78;;;;;;;20.90;55.09;96849.13;5009857;28;20220;-68
2022/07/15 05:22:50;;;;;;;6.35;4.00;;;;;;;21.62;55.39;96947.44;5006846;28;20057;-63
2022/07/15 05:25:17;;;;;;;10.45;5.82;;;;;;;21.66;54.67;96954.56;5004385;28;20062;-70
2022/07/15 05:27:44;;;;;;;4.28;3.95;;;;;;;21.39;54.45;96889.28;5004662;28;20061;-69
2022/07/15 05:30:18;;;;;;;12.98;4.07;;;;;;;21.62;54.28;96903.13;5023132;28;20057;-61
2022/07/15 05:32:44;;;;;;;;;;;;;;;22.08;53.81;96944.13;5025450;28;20053;-67
2022/07/15 05:35:15;;;;;;;4.95;4.45;;;;;;;22.29;53.05;96947.09;5024319;28;19948;-62
2022/07/15 05:37:42;;;;;;;5.47;4.97;;;;;;;21.42;52.72;96803.81;5009575;28;20053;-64
2022/07/15 05:40:09;;;;;;;3.90;3.63;;;;;;;22.32;52.53;96917.94;5015488;28;20045;-65
2022/07/15 05:42:37;;;;;;;4.43;4.13;;;;;;;22.17;51.90;96874.50;5007920;28;20093;-65
2022/07/15 05:45:05;;;;;;;4.18;3.70;;;;;;;22.45;51.93;96881.25;5019720;28;20050;-63
2022/07/15 05:47:32;;;;;;;4.20;3.95;;;;;;;22.96;51.30;96933.66;5008302;28;20113;-61
2022/07/15 05:49:59;;;;;;;8.23;4.60;;;;;;;22.42;51.47;96882.97;5012606;28;20073;-64
2022/07/15 05:52:26;;;;;;;5.07;3.85;;;;;;;22.78;50.63;96859.25;5004524;28;20050;-65
2022/07/15 05:54:53;;;;;;;5.65;3.83;;;;;;;23.26;49.80;96901.97;5012463;28;20050;-68
2022/07/15 05:57:19;;;;;;;7.55;4.47;;;;;;;21.90;47.53;96670.25;5012640;28;20054;-66
2022/07/15 05:59:46;;;;;;;7.38;5.30;;;;;;;23.46;47.85;96898.84;5006064;28;20061;-69
2022/07/15 06:02:13;;;;;;;4.35;4.03;;;;;;;22.96;47.20;96791.59;5008350;28;20081;-72
2022/07/15 06:04:41;;;;;;;5.18;4.78;;;;;;;24.06;45.82;96925.72;5012197;28;20060;-66
2022/07/15 06:07:08;;;;;;;9.70;4.72;;;;;;;24.21;46.07;96926.78;5008621;28;20610;-66
2022/07/15 06:09:35;;;;;;;8.93;5.47;;;;;;;24.02;45.73;96870.50;5005617;28;20062;-78
2022/07/15 06:12:02;;;;;;;5.82;4.80;;;;;;;24.64;45.31;96923.84;5009710;28;20053;-62
2022/07/15 06:14:29;;;;;;;6.47;5.13;;;;;;;24.18;43.98;96842.78;5010444;28;20112;-68
2022/07/15 06:17:03;;;;;;;9.98;6.75;;;;;;;23.56;41.98;96739.28;5010212;28;20072;-68
2022/07/15 06:19:30;;;;;;;7.40;5.10;;;;;;;24.21;43.47;96813.53;5003405;28;20160;-70
2022/07/15 06:21:57;;;;;;;7.00;4.80;;;;;;;24.94;44.16;96894.66;5012460;28;20058;-65
2022/07/15 06:24:23;;;;;;;7.55;4.90;;;;;;;24.39;42.41;96779.59;5017290;28;20046;-72
2022/07/15 06:26:51;;;;;;;4.72;4.32;;;;;;;24.24;41.73;96767.28;5017942;28;20053;-66
2022/07/15 06:29:18;;;;;;;4.82;4.50;;;;;;;25.47;41.66;96925.66;5012790;28;20046;-70
2022/07/15 06:31:45;;;;;;;5.95;5.40;;;;;;;25.43;41.22;96865.47;5008258;28;20421;-69
2022/07/15 06:34:12;;;;;;;5.40;5.10;;;;;;;25.67;40.88;96891.97;5017253;28;20081;-71
2022/07/15 06:36:39;;;;;;;6.05;5.38;;;;;;;26.19;40.45;96914.31;5008817;28;20058;-66
2022/07/15 06:39:06;;;;;;;5.53;4.97;;;;;;;26.45;39.35;96906.97;5008971;28;20092;-66
2022/07/15 06:41:33;;;;;;;5.43;5.00;;;;;;;26.17;39.22;96843.78;5014877;28;20045;-71
2022/07/15 06:44:01;;;;;;;5.40;5.07;;;;;;;26.64;39.85;96911.34;5016446;28;20056;-68
2022/07/15 06:46:28;;;;;;;5.80;5.40;;;;;;;26.85;39.38;96907.47;5013685;28;20516;-62
2022/07/15 06:48:55;;;;;;;6.50;6.10;;;;;;;27.04;39.58;96900.41;5005456;28;20050;-71
2022/07/15 06:51:22;;;;;;;6.05;5.25;;;;;;;27.03;39.08;96856.16;5011264;28;20057;-66
2022/07/15 06:53:48;;;;;;;6.10;5.60;;;;;;;27.01;38.86;96818.13;5006494;28;20080;-64
2022/07/15 06:56:15;;;;;;;6.00;5.50;;;;;;;27.66;38.63;96889.88;5009140;28;20060;-67
2022/07/15 06:58:42;;;;;;;5.53;5.20;;;;;;;27.54;38.33;96893.78;5009310;28;20417;-65
2022/07/15 07:01:09;;;;;;;5.82;5.43;;;;;;;25.10;37.92;96460.66;5007460;28;20123;-66
2022/07/15 07:03:35;;;;;;;8.55;5.68;;;;;;;27.83;38.04;96939.41;5008652;28;20443;-65
2022/07/15 07:06:23;;;;;;;5.60;5.30;;;;;;;27.43;38.31;96825.25;5009313;28;20109;-65
2022/07/15 07:08:52;;;;;;;5.68;5.28;;;;;;;28.17;37.87;96891.66;5010569;28;20041;-68
2022/07/15 07:11:19;;;;;;;5.68;5.38;;;;;;;27.92;37.73;96844.59;5011684;28;20045;-71
2022/07/15 07:13:47;;;;;;;5.78;5.32;;;;;;;28.52;36.80;96864.84;5011917;28;20073;-66
2022/07/15 07:16:14;;;;;;;7.88;5.20;;;;;;;28.62;36.64;96851.25;5010308;28;20450;-65
2022/07/15 07:18:42;;;;;;;7.50;5.78;;;;;;;28.96;36.35;96850.50;5014634;28;20519;-61
2022/07/15 07:21:08;;;;;;;6.18;5.60;;;;;;;29.27;36.21;96879.22;5008520;28;20050;-64
2022/07/15 07:23:38;;;;;;;5.97;5.35;;;;;;;29.44;35.63;96897.34;5019731;28;20049;-63
2022/07/15 07:26:06;;;;;;;6.32;5.68;;;;;;;28.70;34.36;96784.00;5009732;28;20058;-62
2022/07/15 07:28:33;;;;;;;5.43;5.10;;;;;;;28.93;34.90;96774.44;5012745;28;20062;-64
2022/07/15 07:31:00;;;;;;;6.72;6.13;;;;;;;29.82;33.59;96871.38;5013793;28;20517;-63
2022/07/15 07:33:27;;;;;;;6.28;5.93;;;;;;;29.90;33.04;96886.78;5014434;28;20111;-65
2022/07/15 07:35:54;;;;;;;5.80;5.50;;;;;;;30.17;32.70;96876.94;5014674;28;20056;-67
2022/07/15 07:38:21;;;;;;;5.22;5.03;;;;;;;30.43;31.63;96889.19;5014524;28;20210;-62
2022/07/15 07:40:48;;;;;;;6.00;5.60;;;;;;;29.75;31.75;96765.34;5017512;28;20424;-64
2022/07/15 07:43:18;;;;;;;5.80;5.50;;;;;;;30.40;32.01;96870.16;5011172;28;20050;-63
2022/07/15 07:45:46;;;;;;;5.93;5.43;;;;;;;29.52;31.04;96798.56;5011998;28;20053;-63
2022/07/15 07:48:13;;;;;;;5.97;5.68;;;;;;;30.06;31.50;96877.63;5028037;28;20129;-65
2022/07/15 07:50:40;;;;;;;5.70;5.30;;;;;;;29.88;31.15;96820.00;5013264;28;20460;-66
2022/07/15 07:53:07;;;;;;;6.55;5.85;;;;;;;30.07;30.94;96856.31;5018368;28;20084;-67
2022/07/15 07:55:33;;;;;;;5.63;5.28;;;;;;;30.33;31.19;96879.19;5016178;28;20319;-68
2022/07/15 07:58:01;;;;;;;9.32;8.68;;;;;;;30.40;30.98;96879.53;5008216;28;20052;-67
2022/07/15 08:00:29;;;;;;;6.22;5.65;;;;;;;30.52;30.35;96881.22;5017279;28;20045;-66
2022/07/15 08:02:59;;;;;;;5.57;5.28;;;;;;;30.41;30.74;96886.81;5020222;28;20180;-64
2022/07/15 08:05:27;;;;;;;5.70;5.40;;;;;;;30.43;30.83;96872.78;5021166;28;20095;-68
2022/07/15 08:08:07;;;;;;;6.00;5.70;;;;;;;30.54;30.98;96867.16;5006173;28;20050;-67
2022/07/15 08:10:34;;;;;;;5.65;5.35;;;;;;;30.43;30.81;96872.78;5010994;28;20067;-59
2022/07/15 08:13:01;;;;;;;6.10;5.80;;;;;;;30.12;30.65;96875.59;5012638;28;20563;-65
2022/07/15 08:15:28;;;;;;;5.78;5.47;;;;;;;29.85;30.99;96867.50;5011710;28;20060;-60
2022/07/15 08:17:56;;;;;;;5.85;5.55;;;;;;;30.08;31.26;96868.53;5019421;28;20136;-63
2022/07/15 08:20:23;;;;;;;6.47;5.97;;;;;;;29.82;30.83;96794.25;5019427;28;20055;-63
2022/07/15 08:22:51;;;;;;;6.40;5.95;;;;;;;30.09;30.73;96812.94;5018309;28;20050;-66
2022/07/15 08:25:18;;;;;;;6.10;5.70;;;;;;;30.38;30.98;96847.78;5009468;28;20050;-64
2022/07/15 08:27:45;;;;;;;9.35;6.00;;;;;;;30.56;30.39;96838.06;5020243;28;20063;-65
2022/07/15 08:30:18;;;;;;;5.63;4.95;;;;;;;30.61;30.02;96849.56;5009265;28;20076;-68
2022/07/15 08:32:45;;;;;;;5.85;5.55;;;;;;;30.55;30.48;96802.97;5022160;28;20045;-63
2022/07/15 08:35:12;;;;;;;5.82;5.43;;;;;;;30.67;30.12;96830.34;5009298;28;20045;-64
2022/07/15 08:37:44;;;;;;;6.20;5.80;;;;;;;30.75;30.29;96860.06;5018084;28;20045;-68
2022/07/15 08:40:12;;;;;;;6.57;5.35;;;;;;;30.86;30.85;96843.00;5015628;28;20587;-60
2022/07/15 08:42:41;;;;;;;7.78;6.07;;;;;;;31.20;29.32;96866.09;5007226;28;20054;-61
2022/07/15 08:45:10;;;;;;;6.57;5.32;;;;;;;30.79;29.46;96774.03;5007287;28;20560;-67
2022/07/15 08:47:39;;;;;;;6.10;5.80;;;;;;;31.47;28.70;96854.03;5013275;28;20053;-60
2022/07/15 08:50:24;;;;;;;5.47;5.13;;;;;;;31.29;29.21;96822.94;5020655;28;20080;-67
2022/07/15 08:52:51;;;;;;;7.72;7.22;;;;;;;31.57;28.81;96809.56;5006934;28;20540;-67
2022/07/15 08:55:19;;;;;;;6.43;5.97;;;;;;;31.95;28.39;96846.13;5009194;28;20054;-67
2022/07/15 08:57:52;;;;;;;7.30;6.80;;;;;;;31.76;28.26;96840.06;5007470;28;20058;-68
2022/07/15 09:00:22;;;;;;;6.40;5.88;;;;;;;31.23;29.03;96836.44;5009377;28;20075;-67
2022/07/15 09:02:49;;;;;;;6.80;6.18;;;;;;;31.06;29.10;96827.00;5007116;28;20057;-62
2022/07/15 09:05:28;;;;;;;5.55;5.35;;;;;;;31.33;29.08;96834.97;5007281;28;20084;-67
2022/07/15 09:08:01;;;;;;;8.30;6.50;;;;;;;31.66;29.36;96829.38;5006442;28;20098;-67
2022/07/15 09:10:55;;;;;;;5.87;5.30;;;;;;;31.89;28.82;96837.53;5009932;28;20052;-61
2022/07/15 09:13:22;;;;;;;;;;;;;;;31.96;28.44;96833.38;5005272;28;20053;-60
2022/07/15 09:15:49;;;;;;;5.78;5.38;;;;;;;31.88;27.61;96795.88;5010380;28;19952;-66
2022/07/15 09:18:19;;;;;;;6.10;5.80;;;;;;;32.24;27.92;96834.22;5005199;28;20058;-67
2022/07/15 09:20:47;;;;;;;6.32;5.93;;;;;;;32.41;28.12;96843.63;5011000;28;20056;-68
2022/07/15 09:23:29;;;;;;;6.22;5.53;;;;;;;32.50;27.73;96834.00;5005799;28;20057;-67
2022/07/15 09:26:19;;;;;;;6.72;6.32;;;;;;;32.59;27.35;96837.38;5009732;28;20070;-59
2022/07/15 09:28:46;;;;;;;8.65;7.75;;;;;;;32.57;26.95;96819.91;5005292;28;20046;-58
2022/07/15 09:34:02;;;;;;;6.10;5.80;;;;;;;32.56;27.13;96821.22;5013509;28;20173;-68
2022/07/15 09:36:31;;;;;;;6.15;5.85;;;;;;;31.96;27.19;96724.47;5008248;28;20504;-63
2022/07/15 09:39:04;;;;;;;6.18;5.68;;;;;;;32.75;26.86;96816.50;5007267;28;20049;-68
2022/07/15 09:41:41;;;;;;;6.30;5.95;;;;;;;32.64;26.88;96816.53;5009949;28;20496;-63
2022/07/15 09:44:13;;;;;;;5.82;5.43;;;;;;;32.23;26.89;96816.22;5013671;28;20064;-59
2022/07/15 09:46:57;;;;;;;7.25;6.50;;;;;;;31.91;27.60;96814.09;5018028;28;20439;-62
2022/07/15 09:49:24;;;;;;;5.82;5.53;;;;;;;31.86;27.72;96803.41;5016076;28;20072;-63
2022/07/15 09:51:57;;;;;;;6.13;5.72;;;;;;;31.81;27.18;96781.22;5011639;28;20440;-70
2022/07/15 09:54:30;;;;;;;6.32;5.93;;;;;;;32.06;27.89;96786.75;5012058;28;20048;-61
2022/07/15 09:57:00;;;;;;;8.80;6.25;;;;;;;32.08;27.95;96798.50;5017794;28;20049;-62
2022/07/15 09:59:27;;;;;;;7.32;6.80;;;;;;;31.95;28.66;96751.56;5024012;28;20512;-66
2022/07/15 10:01:54;;;;;;;6.60;5.90;;;;;;;32.41;27.77;96757.59;5013530;28;20105;-62
2022/07/15 10:04:23;;;;;;;7.05;6.63;;;;;;;32.37;27.73;96719.81;5023326;28;20522;-63
2022/07/15 10:06:56;;;;;;;6.38;6.07;;;;;;;32.31;27.09;96770.63;5017620;28;20049;-65
2022/07/15 10:09:44;;;;;;;6.22;5.88;;;;;;;32.52;26.91;96743.22;5014540;28;20057;-67
2022/07/15 10:12:16;;;;;;;6.00;5.60;;;;;;;33.13;27.38;96784.09;5009231;28;20060;-69
2022/07/15 10:14:54;;;;;;;7.75;5.80;;;;;;;33.21;26.63;96778.56;5017536;28;20049;-64
2022/07/15 10:17:47;;;;;;;6.07;5.78;;;;;;;33.15;26.17;96781.44;5008616;28;20053;-68
2022/07/15 10:20:33;;;;;;;6.40;5.97;;;;;;;32.97;26.29;96775.53;5014118;28;20054;-63
2022/07/15 10:23:34;;;;;;;6.82;6.30;;;;;;;33.18;26.21;96763.16;5011236;28;20156;-64
2022/07/15 10:26:20;;;;;;;7.05;6.65;;;;;;;33.62;26.45;96780.22;5007551;28;20061;-62
2022/07/15 10:28:57;;;;;;;;;;;;;;;33.31;26.15;96772.00;5027625;28;20104;-69
2022/07/15 10:31:29;;;;;;;6.45;6.05;;;;;;;33.15;26.04;96781.44;5013215;28;19925;-63
2022/07/15 10:34:02;;;;;;;7.18;6.72;;;;;;;32.88;27.00;96773.69;5012600;28;20046;-62
2022/07/15 10:36:54;;;;;;;6.22;5.93;;;;;;;32.26;27.03;96748.47;5009943;28;20063;-66
2022/07/15 10:39:24;;;;;;;6.32;6.03;;;;;;;32.76;27.35;96760.66;5017721;28;20041;-65
2022/07/15 10:42:03;;;;;;;6.85;6.55;;;;;;;32.89;26.69;96734.31;5012877;28;20138;-68
2022/07/15 10:44:37;;;;;;;6.60;6.00;;;;;;;31.85;25.88;96483.78;5021693;28;20139;-66
2022/07/15 10:47:12;;;;;;;6.85;6.25;;;;;;;33.91;26.71;96752.13;5005898;28;20054;-65
2022/07/15 10:49:43;;;;;;;6.70;6.20;;;;;;;34.04;26.45;96758.03;5015281;28;20041;-62
2022/07/15 10:52:24;;;;;;;6.32;5.93;;;;;;;34.32;25.84;96752.88;5009677;28;20470;-64
2022/07/15 10:54:54;;;;;;;6.40;6.10;;;;;;;33.52;26.07;96750.25;5002269;28;20057;-66
2022/07/15 10:57:41;;;;;;;6.90;6.28;;;;;;;33.87;26.00;96748.72;5008093;28;20155;-62
2022/07/15 11:00:20;;;;;;;7.20;6.70;;;;;;;34.45;26.25;96750.13;5009152;28;20046;-62
2022/07/15 11:03:19;;;;;;;7.75;6.68;;;;;;;33.93;26.57;96740.88;5023467;28;20045;-70
2022/07/15 11:05:52;;;;;;;7.00;6.50;;;;;;;34.40;25.85;96739.50;5017497;28;20056;-62
2022/07/15 11:08:31;;;;;;;7.28;6.70;;;;;;;34.80;25.36;96732.78;5002902;28;20065;-59
2022/07/15 11:11:18;;;;;;;6.28;5.88;;;;;;;35.29;25.11;96734.31;5012743;28;20147;-65
2022/07/15 11:13:49;;;;;;;6.80;6.40;;;;;;;34.88;25.75;96725.13;5004188;28;20050;-60
2022/07/15 11:16:19;;;;;;;7.38;6.78;;;;;;;34.93;25.46;96735.81;5009962;28;20057;-65
2022/07/15 11:18:52;;;;;;;7.25;6.75;;;;;;;35.09;25.38;96731.97;5001887;28;20460;-70
2022/07/15 11:21:22;;;;;;;7.72;7.13;;;;;;;34.77;25.11;96665.56;5016661;28;20128;-68
2022/07/15 11:23:51;;;;;;;6.88;6.38;;;;;;;35.29;24.66;96696.88;5011887;28;20056;-60
2022/07/15 11:26:18;;;;;;;7.22;6.63;;;;;;;34.63;24.66;96596.91;5012579;28;20549;-69
2022/07/15 11:28:59;;;;;;;6.18;5.82;;;;;;;35.45;25.06;96721.84;5015386;28;20053;-68
2022/07/15 11:31:26;;;;;;;6.97;6.32;;;;;;;33.83;24.63;96460.81;5014142;28;20045;-65
2022/07/15 11:33:54;;;;;;;6.15;5.55;;;;;;;35.50;24.51;96692.16;5023627;28;20041;-64
2022/07/15 11:36:23;;;;;;;7.57;7.05;;;;;;;35.50;24.75;96700.81;5017538;28;20081;-65
2022/07/15 11:38:51;;;;;;;7.30;6.75;;;;;;;35.77;24.51;96725.56;5006388;28;20388;-63
2022/07/15 11:46:52;;;;;;;7.38;6.85;;;;;;;34.86;24.91;96667.28;5018698;28;20403;-59
2022/07/15 11:49:30;;;;;;;6.35;5.90;;;;;;;34.64;25.03;96725.09;5016497;28;20149;-62
2022/07/15 11:51:58;;;;;;;5.85;5.55;;;;;;;34.31;24.95;96621.84;5018225;28;20140;-60
2022/07/15 11:54:26;;;;;;;6.88;6.40;;;;;;;33.35;26.33;96697.84;5020160;28;20140;-69
2022/07/15 11:56:59;;;;;;;7.50;6.90;;;;;;;34.12;25.77;96721.63;5012626;28;20191;-63